Time;durP1;ratioP1;P1;durP2;ratioP2;P2;SDS_P1;SDS_P2;PMS_P1;PMS_P2;Temp;Humidity;BMP_temperature;BMP_pressure;BME280_temperature;BME280_humidity;BME280_pressure;Samples;Min_cycle;Max_cycle;Signal;HPM_P1;HPM_P2
2021/05/10 00:02:11;;;;;;;3.95;1.20;;;25.30;76.40;;;;;;4994073;28;20025;-75
2021/05/10 00:04:39;;;;;;;3.10;1.92;;;25.40;75.90;;;;;;4992105;28;20493;-74
2021/05/10 00:07:08;;;;;;;3.38;1.27;;;25.50;75.40;;;;;;4993255;28;20022;-74
2021/05/10 00:09:36;;;;;;;1.40;1.25;;;25.70;73.90;;;;;;4994290;28;20754;-75
2021/05/10 00:12:04;;;;;;;2.92;1.40;;;25.60;72.80;;;;;;5003505;28;20488;-73
2021/05/10 00:14:44;;;;;;;4.35;1.40;;;25.70;72.90;;;;;;4991234;28;20025;-74
2021/05/10 00:17:12;;;;;;;1.60;1.38;;;25.50;75.00;;;;;;4992270;28;20068;-74
2021/05/10 00:19:39;;;;;;;1.55;1.00;;;26.10;74.80;;;;;;4993488;28;20050;-75
2021/05/10 00:22:07;;;;;;;3.10;1.05;;;26.60;71.90;;;;;;4999523;28;20037;-74
2021/05/10 00:24:35;;;;;;;3.47;1.20;;;27.10;73.60;;;;;;4990348;28;20509;-73
2021/05/10 00:27:02;;;;;;;1.35;1.05;;;27.50;72.80;;;;;;4990432;28;20036;-74
2021/05/10 00:29:29;;;;;;;2.75;1.10;;;28.00;69.70;;;;;;4988130;28;20041;-75
2021/05/10 00:32:00;;;;;;;3.28;0.80;;;27.90;67.10;;;;;;4990194;28;20022;-74
2021/05/10 00:34:27;;;;;;;1.35;0.60;;;28.00;65.50;;;;;;4995215;28;20492;-74
2021/05/10 00:36:55;;;;;;;0.60;0.60;;;27.90;64.70;;;;;;4993775;28;20046;-75
2021/05/10 00:39:22;;;;;;;0.98;0.50;;;27.60;65.30;;;;;;4993976;28;20108;-74
2021/05/10 00:41:50;;;;;;;1.33;0.57;;;27.10;66.70;;;;;;4983685;28;20100;-73
2021/05/10 00:44:17;;;;;;;3.10;0.57;;;27.30;65.80;;;;;;4995910;28;20030;-74
2021/05/10 00:46:46;;;;;;;1.50;0.30;;;27.20;65.40;;;;;;4992045;28;20057;-74
2021/05/10 00:49:13;;;;;;;0.90;0.40;;;27.20;64.90;;;;;;4988765;28;20046;-73
2021/05/10 00:51:40;;;;;;;0.65;0.40;;;27.50;63.60;;;;;;4996559;28;20650;-73
2021/05/10 00:54:08;;;;;;;0.85;0.30;;;27.70;62.60;;;;;;4989342;28;20077;-74
2021/05/10 00:56:35;;;;;;;1.00;0.40;;;27.40;61.80;;;;;;4990130;28;20034;-77
2021/05/10 00:59:03;;;;;;;1.10;0.50;;;27.40;58.90;;;;;;5003350;28;20050;-76
2021/05/10 01:01:31;;;;;;;0.90;0.40;;;27.90;60.30;;;;;;4989259;28;20030;-75
2021/05/10 01:03:58;;;;;;;0.45;0.45;;;28.00;58.40;;;;;;4996038;28;20034;-73
2021/05/10 01:06:26;;;;;;;0.80;0.38;;;28.60;58.90;;;;;;4998816;28;20050;-74
2021/05/10 01:08:53;;;;;;;0.85;0.40;;;28.90;59.40;;;;;;4991384;28;20027;-74
2021/05/10 01:11:21;;;;;;;2.10;0.70;;;29.20;59.40;;;;;;4991074;28;20495;-76
2021/05/10 01:13:48;;;;;;;2.10;0.60;;;29.10;60.60;;;;;;4995420;28;20029;-75
2021/05/10 01:16:16;;;;;;;0.88;0.40;;;29.70;59.10;;;;;;4996045;28;20050;-74
2021/05/10 01:18:45;;;;;;;1.23;0.60;;;30.00;56.90;;;;;;4994776;28;20128;-75
2021/05/10 01:21:13;;;;;;;2.88;0.70;;;30.70;58.20;;;;;;4991252;28;20030;-74
2021/05/10 01:23:42;;;;;;;1.45;0.98;;;30.70;54.00;;;;;;4994100;28;20140;-74
2021/05/10 01:26:13;;;;;;;1.30;0.40;;;29.50;57.30;;;;;;4987997;28;20037;-73
2021/05/10 01:28:41;;;;;;;1.02;0.35;;;29.00;56.50;;;;;;4992052;28;20117;-74
2021/05/10 01:31:09;;;;;;;1.23;0.50;;;29.00;60.70;;;;;;4989195;28;20054;-74
2021/05/10 01:33:36;;;;;;;1.20;0.52;;;29.80;60.00;;;;;;4989863;28;20026;-73
2021/05/10 01:36:04;;;;;;;2.15;0.85;;;29.20;59.30;;;;;;4992398;28;20034;-74
2021/05/10 01:38:31;;;;;;;0.95;0.52;;;29.50;57.40;;;;;;4996109;28;20034;-74
2021/05/10 01:40:59;;;;;;;1.20;0.80;;;29.60;57.30;;;;;;4994184;28;20133;-73
2021/05/10 01:43:26;;;;;;;0.95;0.57;;;30.20;57.90;;;;;;4972899;28;20125;-77
2021/05/10 01:45:54;;;;;;;1.85;0.60;;;30.70;56.10;;;;;;4988198;28;20029;-76
2021/05/10 01:48:21;;;;;;;0.57;0.40;;;30.10;54.00;;;;;;4994571;28;20665;-79
2021/05/10 01:50:49;;;;;;;1.35;0.47;;;30.00;55.60;;;;;;4995959;28;20050;-78
2021/05/10 01:53:18;;;;;;;0.60;0.40;;;30.40;54.30;;;;;;4994177;28;20027;-81
2021/05/10 01:55:45;;;;;;;3.25;0.60;;;30.60;56.40;;;;;;4990902;28;20104;-81
2021/05/10 01:58:13;;;;;;;2.20;1.02;;;30.90;55.20;;;;;;4991660;28;21091;-80
2021/05/10 02:00:46;;;;;;;0.75;0.35;;;31.20;54.30;;;;;;4988688;28;20042;-78
2021/05/10 02:03:19;;;;;;;0.45;0.30;;;30.90;55.60;;;;;;4992979;28;20101;-78
2021/05/10 02:05:50;;;;;;;1.35;0.50;;;30.80;51.20;;;;;;4999655;28;20468;-79
2021/05/10 02:08:19;;;;;;;1.23;0.60;;;30.20;51.30;;;;;;4996560;28;20061;-78
2021/05/10 02:10:49;;;;;;;0.43;0.30;;;29.90;53.40;;;;;;4995386;28;20018;-79
2021/05/10 02:13:20;;;;;;;3.30;0.30;;;30.30;53.60;;;;;;4994533;28;20033;-78
2021/05/10 02:15:56;;;;;;;0.70;0.52;;;30.70;56.00;;;;;;4997948;28;20022;-78
2021/05/10 02:18:31;;;;;;;0.70;0.50;;;30.40;52.70;;;;;;4999630;28;20381;-77
2021/05/10 02:20:59;;;;;;;2.58;0.60;;;31.20;57.40;;;;;;5001715;28;20489;-77
2021/05/10 02:23:28;;;;;;;2.60;0.40;;;31.40;53.40;;;;;;5001447;28;20053;-78
2021/05/10 02:25:59;;;;;;;1.42;0.60;;;30.70;50.70;;;;;;4994511;28;20554;-81
2021/05/10 02:28:28;;;;;;;1.25;0.47;;;30.10;52.80;;;;;;4994921;28;20442;-76
2021/05/10 02:30:57;;;;;;;0.45;0.13;;;30.10;51.80;;;;;;5002202;28;20503;-81
2021/05/10 02:33:28;;;;;;;1.15;0.13;;;29.50;49.40;;;;;;4998033;28;20058;-80
2021/05/10 02:35:56;;;;;;;1.85;0.20;;;28.30;53.10;;;;;;5003681;28;20100;-78
2021/05/10 02:38:25;;;;;;;0.63;0.63;;;27.30;52.60;;;;;;4998035;28;20084;-80
2021/05/10 02:40:53;;;;;;;1.13;0.28;;;27.30;51.40;;;;;;4995204;28;20088;-78
2021/05/10 02:43:23;;;;;;;0.10;0.10;;;28.40;50.20;;;;;;5013257;28;20022;-80
2021/05/10 02:45:55;;;;;;;1.02;0.22;;;28.30;49.60;;;;;;5004600;28;20029;-81
2021/05/10 02:48:23;;;;;;;0.10;0.10;;;28.60;49.70;;;;;;5013237;28;20041;-79
2021/05/10 02:50:51;;;;;;;0.35;0.20;;;29.20;50.70;;;;;;5014654;28;20046;-78
2021/05/10 02:53:18;;;;;;;0.30;0.20;;;29.20;47.40;;;;;;4999395;28;20033;-81
2021/05/10 02:55:46;;;;;;;2.47;0.20;;;28.80;47.90;;;;;;5007401;28;20042;-79
2021/05/10 02:58:13;;;;;;;0.38;0.20;;;28.60;45.80;;;;;;5010274;28;20041;-80
2021/05/10 03:00:40;;;;;;;0.10;0.10;;;28.30;46.70;;;;;;5007568;28;20038;-79
2021/05/10 03:03:08;;;;;;;0.45;0.45;;;28.50;46.70;;;;;;4997671;28;20049;-82
2021/05/10 03:05:36;;;;;;;0.38;0.30;;;28.60;47.80;;;;;;4996699;28;20125;-80
2021/05/10 03:08:03;;;;;;;0.40;0.20;;;28.60;48.40;;;;;;4993696;28;20029;-82
2021/05/10 03:10:31;;;;;;;0.20;0.20;;;28.50;45.80;;;;;;4999196;28;20041;-79
2021/05/10 03:12:58;;;;;;;0.30;0.20;;;28.50;46.80;;;;;;5001916;28;20022;-82
2021/05/10 03:15:25;;;;;;;0.32;0.20;;;28.70;47.50;;;;;;4998856;28;20028;-80
2021/05/10 03:17:53;;;;;;;0.57;0.25;;;28.60;46.10;;;;;;5002364;28;20034;-81
2021/05/10 03:20:23;;;;;;;0.30;0.10;;;28.00;45.20;;;;;;4998910;28;20042;-80
2021/05/10 03:22:54;;;;;;;0.40;0.20;;;27.80;46.90;;;;;;4999185;28;20324;-77
2021/05/10 03:25:22;;;;;;;0.20;0.10;;;27.60;47.90;;;;;;4998010;28;20036;-79
2021/05/10 03:27:53;;;;;;;0.85;0.20;;;27.90;46.80;;;;;;5004587;28;20030;-78
2021/05/10 03:30:22;;;;;;;0.50;0.20;;;27.60;46.70;;;;;;4998868;28;20026;-75
2021/05/10 03:32:50;;;;;;;0.55;0.13;;;27.50;48.60;;;;;;4999697;28;20029;-79
2021/05/10 03:35:19;;;;;;;0.75;0.20;;;27.60;49.40;;;;;;4999868;28;20224;-78
2021/05/10 03:37:47;;;;;;;0.70;0.30;;;27.50;47.50;;;;;;4998240;28;20038;-80
2021/05/10 03:40:17;;;;;;;0.20;0.08;;;27.60;48.80;;;;;;4999019;28;20030;-81
2021/05/10 03:42:46;;;;;;;0.63;0.20;;;27.30;48.40;;;;;;4983351;28;20084;-86
2021/05/10 03:45:15;;;;;;;1.27;0.40;;;27.10;49.00;;;;;;4995005;28;20029;-85
2021/05/10 03:47:43;;;;;;;0.15;0.10;;;27.00;48.80;;;;;;4995312;28;20869;-79
2021/05/10 03:50:16;;;;;;;3.33;0.10;;;26.70;49.70;;;;;;4993826;28;20043;-79
2021/05/10 03:52:47;;;;;;;2.03;0.10;;;26.30;50.30;;;;;;4996489;28;20030;-77
2021/05/10 03:55:18;;;;;;;0.28;0.28;;;26.10;49.50;;;;;;4969607;28;20050;-82
2021/05/10 03:57:46;;;;;;;0.20;0.10;;;26.00;50.50;;;;;;4994290;28;20061;-79
2021/05/10 04:00:17;;;;;;;2.25;0.30;;;26.00;51.10;;;;;;4996265;28;20041;-82
2021/05/10 04:02:45;;;;;;;0.68;0.13;;;26.00;51.70;;;;;;4995602;28;20044;-82
2021/05/10 04:11:02;;;;;;;1.33;0.73;;;25.30;52.10;;;;;;4994272;28;20110;-79
2021/05/10 04:16:07;;;;;;;3.17;0.30;;;24.90;53.80;;;;;;4996651;28;20018;-79
2021/05/10 04:18:35;;;;;;;0.17;0.13;;;24.90;55.40;;;;;;4993325;28;20041;-79
2021/05/10 04:21:03;;;;;;;0.98;0.20;;;24.80;54.60;;;;;;4993906;28;20058;-81
2021/05/10 04:23:31;;;;;;;0.35;0.08;;;24.70;54.40;;;;;;4994680;28;20022;-76
2021/05/10 04:26:01;;;;;;;5.93;1.50;;;24.70;55.00;;;;;;4994721;28;20014;-79
2021/05/10 04:28:30;;;;;;;3.20;0.82;;;24.80;54.80;;;;;;4993033;28;20550;-83
2021/05/10 04:30:57;;;;;;;1.95;0.30;;;24.90;55.20;;;;;;4997881;28;20030;-77
2021/05/10 04:33:32;;;;;;;1.20;0.40;;;24.80;54.80;;;;;;4992404;28;20109;-80
2021/05/10 04:36:01;;;;;;;9.60;0.77;;;24.60;54.70;;;;;;4995579;28;20022;-85
2021/05/10 04:38:29;;;;;;;0.50;0.20;;;24.50;55.80;;;;;;4994948;28;20030;-79
2021/05/10 04:40:57;;;;;;;3.35;0.20;;;24.50;54.60;;;;;;4995445;28;20041;-80
2021/05/10 04:43:25;;;;;;;0.70;0.20;;;24.30;55.60;;;;;;5000099;28;20029;-77
2021/05/10 04:45:53;;;;;;;12.50;0.82;;;24.30;56.00;;;;;;4996555;28;20038;-80
2021/05/10 04:48:21;;;;;;;0.38;0.20;;;24.30;56.60;;;;;;4993194;28;20045;-78
2021/05/10 04:50:48;;;;;;;1.20;0.22;;;24.10;56.10;;;;;;4991638;28;20035;-79
2021/05/10 04:53:16;;;;;;;1.60;0.30;;;24.10;56.10;;;;;;4999579;28;20073;-77
2021/05/10 04:55:43;;;;;;;0.93;0.28;;;24.00;56.90;;;;;;4995540;28;20480;-80
2021/05/10 04:58:10;;;;;;;1.33;0.25;;;24.00;57.70;;;;;;4996099;28;20045;-81
2021/05/10 05:00:38;;;;;;;0.20;0.13;;;23.90;57.10;;;;;;4996805;28;20057;-80
2021/05/10 05:03:05;;;;;;;5.75;0.75;;;23.80;57.20;;;;;;4989443;28;20025;-78
2021/05/10 05:05:33;;;;;;;3.60;1.10;;;23.80;58.20;;;;;;4995458;28;20029;-80
2021/05/10 05:08:00;;;;;;;1.23;0.50;;;23.90;58.80;;;;;;4993774;28;20033;-80
2021/05/10 05:10:28;;;;;;;0.40;0.10;;;23.80;57.50;;;;;;4993546;28;20673;-82
2021/05/10 05:12:55;;;;;;;0.50;0.20;;;23.80;57.90;;;;;;4995952;28;20032;-82
2021/05/10 05:15:23;;;;;;;4.50;0.50;;;23.80;58.70;;;;;;4997315;28;20029;-81
2021/05/10 05:17:51;;;;;;;9.88;1.35;;;24.00;59.60;;;;;;4993928;28;20089;-82
2021/05/10 05:20:19;;;;;;;4.05;0.30;;;23.90;60.20;;;;;;4991660;28;20650;-79
2021/05/10 05:22:46;;;;;;;3.13;0.50;;;23.80;57.70;;;;;;4988581;28;20022;-76
2021/05/10 05:25:14;;;;;;;0.43;0.25;;;23.70;59.60;;;;;;4996672;28;20053;-79
2021/05/10 05:27:42;;;;;;;1.33;0.20;;;23.70;58.50;;;;;;4996699;28;20228;-76
2021/05/10 05:30:10;;;;;;;0.47;0.20;;;23.70;58.50;;;;;;4994132;28;20516;-76
2021/05/10 05:32:38;;;;;;;3.08;0.70;;;23.70;58.50;;;;;;4996388;28;20041;-80
2021/05/10 05:35:06;;;;;;;0.90;0.20;;;23.80;60.00;;;;;;4995756;28;20125;-82
2021/05/10 05:37:33;;;;;;;126.63;24.73;;;24.00;58.30;;;;;;5000762;28;20030;-78
2021/05/10 05:40:01;;;;;;;52.85;8.85;;;24.20;60.20;;;;;;4996332;28;20126;-75
2021/05/10 05:42:28;;;;;;;8.13;3.80;;;24.20;57.90;;;;;;5000746;28;20026;-74
2021/05/10 05:44:55;;;;;;;22.92;11.02;;;24.20;58.50;;;;;;4993713;28;21479;-77
2021/05/10 05:47:28;;;;;;;81.07;43.78;;;24.20;58.00;;;;;;4994001;28;20022;-78
2021/05/10 05:49:55;;;;;;;48.58;27.15;;;24.10;58.40;;;;;;4991447;28;20443;-75
2021/05/10 05:52:23;;;;;;;42.65;21.52;;;23.90;59.60;;;;;;4991758;28;20022;-76
2021/05/10 05:54:53;;;;;;;120.65;66.55;;;23.70;62.30;;;;;;4998148;28;20049;-75
2021/05/10 05:57:20;;;;;;;153.60;84.20;;;23.50;62.00;;;;;;4992960;28;20389;-74
2021/05/10 05:59:48;;;;;;;74.55;41.08;;;23.30;62.40;;;;;;4976530;28;20137;-75
2021/05/10 06:02:16;;;;;;;8.50;5.18;;;23.20;62.40;;;;;;4990355;28;20157;-74
2021/05/10 06:04:43;;;;;;;12.88;7.90;;;23.30;62.40;;;;;;4992911;28;20037;-76
2021/05/10 06:07:11;;;;;;;5.43;2.97;;;23.40;64.40;;;;;;4996684;28;20017;-77
2021/05/10 06:09:38;;;;;;;3.95;1.33;;;23.30;64.40;;;;;;4986820;28;20500;-77
2021/05/10 06:12:06;;;;;;;10.23;3.63;;;23.40;62.80;;;;;;4996837;28;20029;-75
2021/05/10 06:14:33;;;;;;;17.83;8.65;;;23.60;65.80;;;;;;4994160;28;20100;-76
2021/05/10 06:17:01;;;;;;;3.47;1.98;;;23.80;66.80;;;;;;5000487;28;20033;-75
2021/05/10 06:19:28;;;;;;;1.50;0.80;;;23.80;63.80;;;;;;5000580;28;20042;-74
2021/05/10 06:21:55;;;;;;;1.27;0.40;;;23.60;65.50;;;;;;4999642;28;20041;-75
2021/05/10 06:24:23;;;;;;;1.75;0.60;;;23.50;66.60;;;;;;4994266;28;20033;-74
2021/05/10 06:26:51;;;;;;;1.52;0.50;;;23.30;68.00;;;;;;4998033;28;20025;-74
2021/05/10 06:29:18;;;;;;;0.60;0.30;;;23.10;67.10;;;;;;4997898;28;20022;-74
2021/05/10 06:31:46;;;;;;;0.63;0.20;;;22.90;66.70;;;;;;4994352;28;20493;-74
2021/05/10 06:34:13;;;;;;;7.55;1.15;;;22.80;64.20;;;;;;4994777;28;20112;-73
2021/05/10 06:36:41;;;;;;;1.63;0.30;;;22.60;67.20;;;;;;4998193;28;20041;-74
2021/05/10 06:39:08;;;;;;;7.85;1.60;;;22.50;65.90;;;;;;4996099;28;20034;-75
2021/05/10 06:41:35;;;;;;;0.77;0.32;;;22.40;69.40;;;;;;4999199;28;20028;-73
2021/05/10 06:44:03;;;;;;;2.53;0.50;;;22.20;68.90;;;;;;5008433;28;20036;-76
2021/05/10 06:46:31;;;;;;;3.13;0.50;;;22.10;71.30;;;;;;4998568;28;20116;-77
2021/05/10 06:48:58;;;;;;;2.08;0.30;;;22.00;73.30;;;;;;4994904;28;20046;-77
2021/05/10 06:51:25;;;;;;;0.93;0.30;;;21.80;71.90;;;;;;4993446;28;20420;-76
2021/05/10 06:53:56;;;;;;;0.95;0.30;;;21.80;69.70;;;;;;4993672;28;20030;-80
2021/05/10 06:56:23;;;;;;;3.75;0.75;;;21.70;70.30;;;;;;5007761;28;20022;-81
2021/05/10 06:58:52;;;;;;;38.30;4.25;;;21.60;71.20;;;;;;4997676;28;20037;-76
2021/05/10 07:01:19;;;;;;;5.25;0.65;;;21.40;73.00;;;;;;4999676;28;20433;-76
2021/05/10 07:03:47;;;;;;;10.02;0.70;;;21.40;72.30;;;;;;4997076;28;20061;-77
2021/05/10 07:06:14;;;;;;;24.58;2.88;;;21.30;73.30;;;;;;5003739;28;20026;-77
2021/05/10 07:08:42;;;;;;;31.92;3.70;;;21.10;71.60;;;;;;4998089;28;20034;-80
2021/05/10 07:11:09;;;;;;;40.38;3.30;;;21.00;75.10;;;;;;4992222;28;20038;-76
2021/05/10 07:13:37;;;;;;;20.63;1.90;;;20.90;75.80;;;;;;4993950;28;20556;-76
2021/05/10 07:16:04;;;;;;;10.95;1.20;;;20.80;76.50;;;;;;4998134;28;20025;-76
2021/05/10 07:18:32;;;;;;;6.80;1.38;;;20.70;77.20;;;;;;4996196;28;20035;-75
2021/05/10 07:20:59;;;;;;;7.25;0.85;;;20.60;79.50;;;;;;4994491;28;20149;-76
2021/05/10 07:23:27;;;;;;;1.60;0.93;;;20.50;80.70;;;;;;4995314;28;20026;-75
2021/05/10 07:25:54;;;;;;;4.00;0.40;;;20.40;79.40;;;;;;4997757;28;20026;-75
2021/05/10 07:28:22;;;;;;;1.52;0.80;;;20.30;76.50;;;;;;4995604;28;20038;-74
2021/05/10 07:30:50;;;;;;;2.45;1.33;;;20.20;78.80;;;;;;4992437;28;20026;-74
2021/05/10 07:33:18;;;;;;;2.53;1.23;;;20.20;81.10;;;;;;4995432;28;20038;-74
2021/05/10 07:35:45;;;;;;;3.17;0.77;;;20.10;82.40;;;;;;5000126;28;20030;-76
2021/05/10 07:38:13;;;;;;;3.22;0.68;;;20.00;83.60;;;;;;4996363;28;20034;-78
2021/05/10 07:40:41;;;;;;;3.40;0.88;;;20.00;86.40;;;;;;4998808;28;20049;-75
2021/05/10 07:43:08;;;;;;;21.30;2.85;;;19.90;87.10;;;;;;4992892;28;20046;-75
2021/05/10 07:45:36;;;;;;;7.03;2.00;;;19.80;88.40;;;;;;4999718;28;20388;-75
2021/05/10 07:48:04;;;;;;;8.18;3.40;;;19.70;88.70;;;;;;4992914;28;20097;-75
2021/05/10 07:50:31;;;;;;;4.10;1.55;;;19.60;89.30;;;;;;4993900;28;20126;-75
2021/05/10 07:52:59;;;;;;;3.70;2.00;;;19.50;90.00;;;;;;4992101;28;20027;-75
2021/05/10 07:55:26;;;;;;;4.60;2.28;;;19.50;89.40;;;;;;4998089;28;20558;-75
2021/05/10 07:57:54;;;;;;;4.60;2.30;;;19.40;89.80;;;;;;4996680;28;20108;-73
2021/05/10 08:00:30;;;;;;;6.30;3.00;;;19.30;90.30;;;;;;4997119;28;20030;-75
2021/05/10 08:05:55;;;;;;;5.30;2.55;;;19.10;90.90;;;;;;4995471;28;20148;-74
2021/05/10 08:08:24;;;;;;;4.00;2.53;;;19.00;91.30;;;;;;5001106;28;20026;-75
2021/05/10 08:10:52;;;;;;;6.25;2.85;;;19.00;90.00;;;;;;4996650;28;20377;-74
2021/05/10 08:13:20;;;;;;;9.00;3.22;;;18.90;90.80;;;;;;5001257;28;20688;-75
2021/05/10 08:15:47;;;;;;;11.80;3.72;;;18.90;91.00;;;;;;4995424;28;20504;-74
2021/05/10 08:18:15;;;;;;;9.13;4.55;;;18.80;91.40;;;;;;4991693;28;20042;-73
2021/05/10 08:20:45;;;;;;;7.95;4.25;;;18.70;91.40;;;;;;4994987;28;20041;-74
2021/05/10 08:23:13;;;;;;;7.47;4.13;;;18.70;91.60;;;;;;4995367;28;20018;-72
2021/05/10 08:25:44;;;;;;;8.00;4.32;;;18.60;91.90;;;;;;4993840;28;20042;-73
2021/05/10 08:28:11;;;;;;;8.35;3.97;;;18.50;92.00;;;;;;4994497;28;20235;-74
2021/05/10 08:30:38;;;;;;;7.80;4.32;;;18.50;92.30;;;;;;4992243;28;20044;-75
2021/05/10 08:33:06;;;;;;;8.65;4.05;;;18.50;92.50;;;;;;4998771;28;20054;-74
2021/05/10 08:35:33;;;;;;;10.10;5.25;;;18.40;92.50;;;;;;4996613;28;20022;-75
2021/05/10 08:38:03;;;;;;;9.98;6.05;;;18.30;92.50;;;;;;4998616;28;20019;-73
2021/05/10 08:40:31;;;;;;;14.13;5.43;;;18.20;92.60;;;;;;4999386;28;20027;-73
2021/05/10 08:42:59;;;;;;;12.55;6.15;;;18.20;92.40;;;;;;4997174;28;20018;-72
2021/05/10 08:45:28;;;;;;;10.60;6.07;;;18.20;91.90;;;;;;4997501;28;20030;-74
2021/05/10 08:48:05;;;;;;;9.50;5.60;;;18.20;92.40;;;;;;4992609;28;20420;-74
2021/05/10 08:50:33;;;;;;;10.18;6.10;;;18.10;92.80;;;;;;4989757;28;20035;-73
2021/05/10 08:53:00;;;;;;;9.60;5.13;;;18.10;93.00;;;;;;4999346;28;20053;-74
2021/05/10 08:55:28;;;;;;;9.05;5.18;;;18.00;93.40;;;;;;4994031;28;20485;-74
2021/05/10 08:57:55;;;;;;;7.93;5.20;;;18.00;93.10;;;;;;4995313;28;20050;-72
2021/05/10 09:00:23;;;;;;;7.35;4.72;;;17.90;93.30;;;;;;4999477;28;20046;-72
2021/05/10 09:03:12;;;;;;;11.27;5.90;;;17.80;93.10;;;;;;4997114;28;20105;-72
2021/05/10 09:05:47;;;;;;;8.27;4.40;;;17.70;93.40;;;;;;4999585;28;20177;-72
2021/05/10 09:08:15;;;;;;;8.75;4.88;;;17.70;93.50;;;;;;4999439;28;20022;-74
2021/05/10 09:11:02;;;;;;;5.35;3.22;;;17.70;92.90;;;;;;5000098;28;20144;-73
2021/05/10 09:13:42;;;;;;;8.25;3.42;;;17.70;92.60;;;;;;4999279;28;20036;-74
2021/05/10 09:16:11;;;;;;;5.82;3.45;;;17.70;92.60;;;;;;4997170;28;20058;-76
2021/05/10 09:18:39;;;;;;;8.02;4.03;;;17.70;92.30;;;;;;4981101;28;20076;-75
2021/05/10 09:21:14;;;;;;;8.65;3.92;;;17.70;92.40;;;;;;4991675;28;20512;-75
2021/05/10 09:23:42;;;;;;;6.57;4.13;;;17.70;92.30;;;;;;4993156;28;20030;-74
2021/05/10 09:26:11;;;;;;;7.25;3.25;;;17.70;92.30;;;;;;4999192;28;20040;-74
2021/05/10 09:28:41;;;;;;;5.07;2.00;;;17.50;93.10;;;;;;4997980;28;20451;-74
2021/05/10 09:31:12;;;;;;;6.10;2.85;;;17.40;93.80;;;;;;4996164;28;20113;-74
2021/05/10 09:33:46;;;;;;;5.15;3.17;;;17.40;94.40;;;;;;4992449;28;20038;-75
2021/05/10 09:36:39;;;;;;;6.47;3.83;;;17.30;94.40;;;;;;4991627;28;20372;-75
2021/05/10 09:39:26;;;;;;;6.78;3.47;;;17.20;94.40;;;;;;4991172;28;20038;-76
2021/05/10 09:42:07;;;;;;;6.47;2.85;;;17.20;94.30;;;;;;4998366;28;20025;-75
2021/05/10 09:44:48;;;;;;;5.10;3.10;;;17.10;94.50;;;;;;4999775;28;20026;-76
2021/05/10 09:47:33;;;;;;;6.97;2.70;;;17.10;94.60;;;;;;4994656;28;20439;-78
2021/05/10 09:50:00;;;;;;;6.22;3.25;;;17.00;95.00;;;;;;4995763;28;20054;-77
2021/05/10 09:52:28;;;;;;;6.03;3.20;;;16.90;95.20;;;;;;5005938;28;20021;-77
2021/05/10 09:55:00;;;;;;;6.05;3.13;;;16.90;95.30;;;;;;5005294;28;20026;-77
2021/05/10 09:57:29;;;;;;;6.55;3.28;;;16.80;95.40;;;;;;5001848;28;20416;-74
2021/05/10 10:00:16;;;;;;;4.93;3.50;;;16.70;95.20;;;;;;5003177;28;20034;-75
2021/05/10 10:02:43;;;;;;;6.35;3.53;;;16.50;95.50;;;;;;5004901;28;20129;-74
2021/05/10 10:05:11;;;;;;;7.88;3.65;;;16.50;95.90;;;;;;5002131;28;20428;-76
2021/05/10 10:07:40;;;;;;;5.53;2.72;;;16.50;96.10;;;;;;5002192;28;20053;-76
2021/05/10 10:10:09;;;;;;;5.50;3.28;;;16.40;96.00;;;;;;5001578;28;20033;-74
2021/05/10 10:12:36;;;;;;;4.97;3.35;;;16.40;96.10;;;;;;4996233;28;20036;-72
2021/05/10 10:15:04;;;;;;;4.35;3.22;;;16.40;95.90;;;;;;5006299;28;20580;-72
2021/05/10 10:17:31;;;;;;;10.77;4.32;;;16.30;96.00;;;;;;5005601;28;20482;-74
2021/05/10 10:20:03;;;;;;;9.18;3.63;;;16.40;96.30;;;;;;5001356;28;20042;-74
2021/05/10 10:22:32;;;;;;;7.10;3.85;;;16.40;96.10;;;;;;5003157;28;20404;-73
2021/05/10 10:25:04;;;;;;;7.03;3.78;;;16.40;96.30;;;;;;4999077;28;20040;-74
2021/05/10 10:27:34;;;;;;;7.00;3.42;;;16.30;96.10;;;;;;5000195;28;20029;-75
2021/05/10 10:30:03;;;;;;;7.72;4.22;;;16.30;96.40;;;;;;5001265;28;20558;-73
2021/05/10 10:32:32;;;;;;;5.90;3.80;;;16.30;96.10;;;;;;5002466;28;20038;-73
2021/05/10 10:35:01;;;;;;;6.57;3.95;;;16.30;96.30;;;;;;5005162;28;20054;-73
2021/05/10 10:37:28;;;;;;;8.02;4.43;;;16.20;96.40;;;;;;5000097;28;20034;-72
2021/05/10 10:39:57;;;;;;;8.18;4.03;;;16.20;96.30;;;;;;4998796;28;20022;-75
2021/05/10 10:42:30;;;;;;;9.55;4.15;;;16.10;96.50;;;;;;5002118;28;20469;-74
2021/05/10 10:45:00;;;;;;;10.88;4.68;;;16.10;96.70;;;;;;5002864;28;20029;-76
2021/05/10 10:47:58;;;;;;;6.15;4.07;;;16.00;97.10;;;;;;4999592;28;20073;-74
2021/05/10 10:50:29;;;;;;;7.85;4.55;;;16.00;97.00;;;;;;4995796;28;20508;-74
2021/05/10 10:53:02;;;;;;;6.78;4.28;;;16.00;97.10;;;;;;5002139;28;20026;-74
2021/05/10 10:55:30;;;;;;;7.30;4.97;;;15.90;96.90;;;;;;5004646;28;20149;-74
2021/05/10 10:58:25;;;;;;;7.65;4.60;;;15.90;96.90;;;;;;4999646;28;20058;-73
2021/05/10 11:01:09;;;;;;;7.50;4.57;;;15.80;97.00;;;;;;4994425;28;20140;-73
2021/05/10 11:03:37;;;;;;;8.02;4.25;;;15.70;96.90;;;;;;4999981;28;20018;-74
2021/05/10 11:06:05;;;;;;;8.98;5.47;;;15.70;97.00;;;;;;5003705;28;20129;-74
2021/05/10 11:08:56;;;;;;;11.00;5.10;;;15.70;97.30;;;;;;5004900;28;20064;-73
2021/05/10 11:11:33;;;;;;;13.20;5.80;;;15.60;97.30;;;;;;4999642;28;20455;-74
2021/05/10 11:14:01;;;;;;;10.35;6.70;;;15.60;97.40;;;;;;5002058;28;20463;-72
2021/05/10 11:16:50;;;;;;;15.13;7.35;;;15.50;97.50;;;;;;5002249;28;20493;-74
2021/05/10 11:19:37;;;;;;;13.18;6.43;;;15.40;97.90;;;;;;5003191;28;20104;-76
2021/05/10 11:22:31;;;;;;;10.65;6.63;;;15.40;98.10;;;;;;4999078;28;20105;-74
2021/05/10 11:25:18;;;;;;;18.30;8.93;;;15.30;98.00;;;;;;4996815;28;20144;-75
2021/05/10 11:27:45;;;;;;;14.38;7.35;;;15.30;98.10;;;;;;5000727;28;20065;-75
2021/05/10 11:30:13;;;;;;;15.07;8.30;;;15.30;98.20;;;;;;4997014;28;20025;-75
2021/05/10 11:32:52;;;;;;;16.20;7.72;;;15.30;98.00;;;;;;4996384;28;20042;-74
2021/05/10 11:35:25;;;;;;;15.40;7.68;;;15.30;98.10;;;;;;5007237;28;20061;-76
2021/05/10 11:38:00;;;;;;;14.55;8.10;;;15.30;98.00;;;;;;4999938;28;20026;-74
2021/05/10 11:40:27;;;;;;;14.45;7.18;;;15.20;98.00;;;;;;4998647;28;20054;-73
2021/05/10 11:42:55;;;;;;;17.00;8.32;;;15.20;98.20;;;;;;5000808;28;20034;-75
2021/05/10 11:45:22;;;;;;;17.77;7.82;;;15.10;98.20;;;;;;5001105;28;20392;-73
2021/05/10 11:47:50;;;;;;;11.00;7.30;;;15.10;98.40;;;;;;5004649;28;20038;-75
2021/05/10 11:50:18;;;;;;;14.40;7.57;;;15.10;98.60;;;;;;4995235;28;20048;-74
2021/05/10 11:52:45;;;;;;;9.18;5.60;;;15.10;98.60;;;;;;4997114;28;20034;-74
2021/05/10 11:55:14;;;;;;;9.63;6.38;;;15.10;98.40;;;;;;4998222;28;20032;-74
2021/05/10 11:57:42;;;;;;;11.63;6.53;;;15.10;98.60;;;;;;4997059;28;20555;-74
2021/05/10 12:00:14;;;;;;;12.27;6.80;;;15.00;98.30;;;;;;4996262;28;20038;-76
2021/05/10 12:02:43;;;;;;;12.20;5.68;;;15.00;98.20;;;;;;4993441;28;20101;-74
2021/05/10 12:05:12;;;;;;;8.45;4.78;;;15.00;98.10;;;;;;4995692;28;20058;-73
2021/05/10 12:07:42;;;;;;;10.25;5.45;;;14.90;98.10;;;;;;5000277;28;20033;-74
2021/05/10 12:10:11;;;;;;;8.27;4.05;;;14.90;98.10;;;;;;5003862;28;20105;-74
2021/05/10 12:12:46;;;;;;;9.27;4.40;;;14.90;98.20;;;;;;4997794;28;20121;-74
2021/05/10 12:15:24;;;;;;;6.45;3.97;;;14.90;98.30;;;;;;4998844;28;20384;-74
2021/05/10 12:17:54;;;;;;;9.20;3.92;;;14.90;98.10;;;;;;4996945;28;20422;-73
2021/05/10 12:20:29;;;;;;;6.80;3.38;;;14.90;98.40;;;;;;4998823;28;20042;-74
2021/05/10 12:22:58;;;;;;;7.38;2.85;;;14.90;98.20;;;;;;4999878;28;20101;-74
2021/05/10 12:25:34;;;;;;;4.72;2.40;;;14.90;98.00;;;;;;4997717;28;20061;-77
2021/05/10 12:28:09;;;;;;;;;;;14.90;98.30;;;;;;4998715;28;20096;-73
2021/05/10 12:30:49;;;;;;;4.60;2.45;;;14.90;98.30;;;;;;5001984;28;19963;-75
2021/05/10 12:33:25;;;;;;;4.18;2.30;;;14.90;98.20;;;;;;5000119;28;20497;-74
2021/05/10 12:36:02;;;;;;;4.70;2.47;;;14.80;98.50;;;;;;5001798;28;20037;-74
2021/05/10 12:38:42;;;;;;;3.17;2.72;;;14.80;98.20;;;;;;4997015;28;20039;-76
2021/05/10 12:41:21;;;;;;;3.90;2.33;;;14.70;98.50;;;;;;5000696;28;20022;-73
2021/05/10 12:43:50;;;;;;;5.75;2.92;;;14.70;98.60;;;;;;5001161;28;20030;-74
2021/05/10 12:46:17;;;;;;;5.75;2.75;;;14.70;98.50;;;;;;4999087;28;20022;-75
2021/05/10 12:48:46;;;;;;;4.88;2.33;;;14.60;98.40;;;;;;4998526;28;20507;-71
2021/05/10 12:51:16;;;;;;;4.05;2.28;;;14.60;98.40;;;;;;4998879;28;20038;-75
2021/05/10 12:54:05;;;;;;;1.73;1.25;;;14.60;98.20;;;;;;5002155;28;20109;-75
2021/05/10 12:56:42;;;;;;;3.47;2.10;;;14.60;98.30;;;;;;4995273;28;20484;-73
2021/05/10 12:59:10;;;;;;;4.18;1.77;;;14.70;98.40;;;;;;4994842;28;20064;-75
2021/05/10 13:01:38;;;;;;;4.05;2.10;;;14.80;98.30;;;;;;4997848;28;20110;-75
2021/05/10 13:04:08;;;;;;;3.95;2.53;;;14.70;98.10;;;;;;5001173;28;20025;-74
2021/05/10 13:06:40;;;;;;;4.70;3.28;;;14.60;98.10;;;;;;4998737;28;20014;-75
2021/05/10 13:09:29;;;;;;;7.30;2.58;;;14.60;98.40;;;;;;4999056;28;20392;-72
2021/05/10 13:12:06;;;;;;;3.55;2.92;;;14.50;98.50;;;;;;4996744;28;20034;-73